sensor_id;sensor_type;location;lat;lon;timestamp;P1;durP1;ratioP1;P2;durP2;ratioP2
36185;SDS011;22228;53.222;7.446;2023-12-29T00:03:00;10.87;;;2.43;;
36185;SDS011;22228;53.222;7.446;2023-12-29T00:06:24;13.70;;;3.33;;
36185;SDS011;22228;53.222;7.446;2023-12-29T00:09:44;10.40;;;2.90;;
36185;SDS011;22228;53.222;7.446;2023-12-29T00:13:06;12.17;;;3.07;;
36185;SDS011;22228;53.222;7.446;2023-12-29T00:16:27;14.37;;;3.30;;
36185;SDS011;22228;53.222;7.446;2023-12-29T00:19:50;12.63;;;2.90;;
36185;SDS011;22228;53.222;7.446;2023-12-29T00:23:27;6.63;;;2.77;;
36185;SDS011;22228;53.222;7.446;2023-12-29T00:27:06;15.60;;;3.47;;
36185;SDS011;22228;53.222;7.446;2023-12-29T00:30:28;7.50;;;1.90;;
36185;SDS011;22228;53.222;7.446;2023-12-29T00:33:50;6.47;;;2.73;;
36185;SDS011;22228;53.222;7.446;2023-12-29T00:37:27;9.30;;;2.40;;
36185;SDS011;22228;53.222;7.446;2023-12-29T00:40:48;6.57;;;1.90;;
36185;SDS011;22228;53.222;7.446;2023-12-29T00:44:23;9.83;;;1.90;;
36185;SDS011;22228;53.222;7.446;2023-12-29T00:47:45;10.13;;;2.20;;
36185;SDS011;22228;53.222;7.446;2023-12-29T00:51:07;6.73;;;1.80;;
36185;SDS011;22228;53.222;7.446;2023-12-29T00:54:27;6.83;;;2.37;;
36185;SDS011;22228;53.222;7.446;2023-12-29T00:57:52;8.80;;;2.40;;
36185;SDS011;22228;53.222;7.446;2023-12-29T01:01:13;9.40;;;2.10;;
36185;SDS011;22228;53.222;7.446;2023-12-29T01:04:35;13.47;;;2.60;;
36185;SDS011;22228;53.222;7.446;2023-12-29T01:07:57;11.07;;;2.10;;
36185;SDS011;22228;53.222;7.446;2023-12-29T01:11:18;8.70;;;1.90;;
36185;SDS011;22228;53.222;7.446;2023-12-29T01:14:41;10.50;;;1.60;;
36185;SDS011;22228;53.222;7.446;2023-12-29T04:03:26;13.57;;;2.93;;
36185;SDS011;22228;53.222;7.446;2023-12-29T04:06:47;12.80;;;3.03;;
36185;SDS011;22228;53.222;7.446;2023-12-29T04:10:08;12.17;;;3.00;;
36185;SDS011;22228;53.222;7.446;2023-12-29T04:13:30;17.17;;;4.23;;
36185;SDS011;22228;53.222;7.446;2023-12-29T04:16:50;13.00;;;3.17;;
36185;SDS011;22228;53.222;7.446;2023-12-29T04:20:12;16.93;;;3.60;;
36185;SDS011;22228;53.222;7.446;2023-12-29T04:23:32;17.77;;;3.30;;
36185;SDS011;22228;53.222;7.446;2023-12-29T04:26:53;14.23;;;4.10;;
36185;SDS011;22228;53.222;7.446;2023-12-29T04:30:14;17.97;;;4.03;;
36185;SDS011;22228;53.222;7.446;2023-12-29T04:33:34;17.50;;;4.00;;
36185;SDS011;22228;53.222;7.446;2023-12-29T04:36:56;19.80;;;4.23;;
36185;SDS011;22228;53.222;7.446;2023-12-29T04:40:19;15.37;;;3.80;;
36185;SDS011;22228;53.222;7.446;2023-12-29T04:43:39;21.60;;;4.10;;
36185;SDS011;22228;53.222;7.446;2023-12-29T04:47:00;18.43;;;3.60;;
36185;SDS011;22228;53.222;7.446;2023-12-29T04:50:20;15.87;;;3.27;;
36185;SDS011;22228;53.222;7.446;2023-12-29T04:53:42;13.23;;;3.43;;
36185;SDS011;22228;53.222;7.446;2023-12-29T04:57:03;16.13;;;3.90;;
36185;SDS011;22228;53.222;7.446;2023-12-29T05:00:24;21.37;;;3.60;;
36185;SDS011;22228;53.222;7.446;2023-12-29T05:03:44;14.27;;;3.13;;
36185;SDS011;22228;53.222;7.446;2023-12-29T05:07:05;14.77;;;3.40;;
36185;SDS011;22228;53.222;7.446;2023-12-29T05:10:29;13.27;;;3.50;;
36185;SDS011;22228;53.222;7.446;2023-12-29T05:13:49;13.37;;;3.70;;
36185;SDS011;22228;53.222;7.446;2023-12-29T05:17:10;14.50;;;3.43;;
36185;SDS011;22228;53.222;7.446;2023-12-29T05:20:30;17.47;;;3.83;;
36185;SDS011;22228;53.222;7.446;2023-12-29T05:23:51;15.23;;;3.00;;
36185;SDS011;22228;53.222;7.446;2023-12-29T05:27:13;18.17;;;3.50;;
36185;SDS011;22228;53.222;7.446;2023-12-29T05:30:33;14.73;;;3.47;;
36185;SDS011;22228;53.222;7.446;2023-12-29T05:33:53;15.50;;;3.00;;
36185;SDS011;22228;53.222;7.446;2023-12-29T05:37:14;15.80;;;3.13;;
36185;SDS011;22228;53.222;7.446;2023-12-29T05:40:35;17.83;;;3.00;;
36185;SDS011;22228;53.222;7.446;2023-12-29T05:43:56;17.57;;;3.60;;
36185;SDS011;22228;53.222;7.446;2023-12-29T05:47:17;16.57;;;3.30;;
36185;SDS011;22228;53.222;7.446;2023-12-29T05:50:37;16.57;;;3.27;;
36185;SDS011;22228;53.222;7.446;2023-12-29T05:53:58;24.50;;;3.60;;
36185;SDS011;22228;53.222;7.446;2023-12-29T05:57:18;17.77;;;3.27;;
36185;SDS011;22228;53.222;7.446;2023-12-29T06:00:40;14.87;;;3.60;;
36185;SDS011;22228;53.222;7.446;2023-12-29T06:04:01;14.30;;;3.07;;
36185;SDS011;22228;53.222;7.446;2023-12-29T06:07:22;22.67;;;4.07;;
36185;SDS011;22228;53.222;7.446;2023-12-29T06:10:42;18.20;;;3.20;;
36185;SDS011;22228;53.222;7.446;2023-12-29T06:14:02;20.67;;;4.03;;
36185;SDS011;22228;53.222;7.446;2023-12-29T06:17:24;17.30;;;3.37;;
36185;SDS011;22228;53.222;7.446;2023-12-29T06:20:45;20.70;;;3.73;;
36185;SDS011;22228;53.222;7.446;2023-12-29T06:24:05;18.27;;;3.83;;
36185;SDS011;22228;53.222;7.446;2023-12-29T06:27:26;15.60;;;2.93;;
36185;SDS011;22228;53.222;7.446;2023-12-29T06:30:46;18.33;;;3.50;;
36185;SDS011;22228;53.222;7.446;2023-12-29T06:34:08;16.80;;;3.57;;
36185;SDS011;22228;53.222;7.446;2023-12-29T06:37:29;16.37;;;3.53;;
36185;SDS011;22228;53.222;7.446;2023-12-29T06:40:49;16.37;;;2.77;;
36185;SDS011;22228;53.222;7.446;2023-12-29T06:44:10;15.70;;;3.20;;
36185;SDS011;22228;53.222;7.446;2023-12-29T06:47:30;16.20;;;3.73;;
36185;SDS011;22228;53.222;7.446;2023-12-29T06:50:52;18.63;;;3.70;;
36185;SDS011;22228;53.222;7.446;2023-12-29T06:54:13;14.07;;;2.93;;
36185;SDS011;22228;53.222;7.446;2023-12-29T06:57:33;15.23;;;3.30;;
36185;SDS011;22228;53.222;7.446;2023-12-29T07:00:54;17.10;;;3.40;;
36185;SDS011;22228;53.222;7.446;2023-12-29T07:04:14;11.90;;;3.10;;
36185;SDS011;22228;53.222;7.446;2023-12-29T07:07:36;11.87;;;2.73;;
36185;SDS011;22228;53.222;7.446;2023-12-29T07:10:57;22.33;;;3.60;;
36185;SDS011;22228;53.222;7.446;2023-12-29T07:14:17;10.37;;;2.97;;
36185;SDS011;22228;53.222;7.446;2023-12-29T07:17:38;18.63;;;3.67;;
36185;SDS011;22228;53.222;7.446;2023-12-29T07:20:58;23.80;;;4.80;;
36185;SDS011;22228;53.222;7.446;2023-12-29T07:24:20;22.67;;;4.30;;
36185;SDS011;22228;53.222;7.446;2023-12-29T07:27:40;20.23;;;4.40;;
36185;SDS011;22228;53.222;7.446;2023-12-29T07:31:01;19.93;;;3.87;;
36185;SDS011;22228;53.222;7.446;2023-12-29T07:34:21;25.57;;;4.60;;
36185;SDS011;22228;53.222;7.446;2023-12-29T07:37:42;18.83;;;4.53;;
36185;SDS011;22228;53.222;7.446;2023-12-29T07:41:04;19.83;;;4.70;;
36185;SDS011;22228;53.222;7.446;2023-12-29T07:44:24;21.80;;;3.87;;
36185;SDS011;22228;53.222;7.446;2023-12-29T07:47:44;19.10;;;3.80;;
36185;SDS011;22228;53.222;7.446;2023-12-29T07:51:05;13.07;;;2.13;;
36185;SDS011;22228;53.222;7.446;2023-12-29T07:54:26;15.53;;;2.70;;
36185;SDS011;22228;53.222;7.446;2023-12-29T07:57:47;12.37;;;3.03;;
36185;SDS011;22228;53.222;7.446;2023-12-29T08:01:08;12.70;;;3.23;;
36185;SDS011;22228;53.222;7.446;2023-12-29T08:04:29;19.73;;;3.60;;
36185;SDS011;22228;53.222;7.446;2023-12-29T08:07:50;18.13;;;3.60;;
36185;SDS011;22228;53.222;7.446;2023-12-29T08:11:14;18.07;;;4.17;;
36185;SDS011;22228;53.222;7.446;2023-12-29T08:14:36;23.07;;;4.30;;
36185;SDS011;22228;53.222;7.446;2023-12-29T08:17:57;23.10;;;4.67;;
36185;SDS011;22228;53.222;7.446;2023-12-29T08:21:17;25.80;;;4.60;;
36185;SDS011;22228;53.222;7.446;2023-12-29T08:24:39;22.63;;;4.20;;
36185;SDS011;22228;53.222;7.446;2023-12-29T08:28:01;20.57;;;4.40;;
36185;SDS011;22228;53.222;7.446;2023-12-29T08:31:23;21.27;;;4.57;;
36185;SDS011;22228;53.222;7.446;2023-12-29T08:34:45;20.30;;;4.40;;
36185;SDS011;22228;53.222;7.446;2023-12-29T08:38:05;22.90;;;4.90;;
36185;SDS011;22228;53.222;7.446;2023-12-29T08:41:26;19.77;;;4.03;;
36185;SDS011;22228;53.222;7.446;2023-12-29T08:44:46;16.37;;;3.60;;
36185;SDS011;22228;53.222;7.446;2023-12-29T08:48:08;19.10;;;4.50;;
36185;SDS011;22228;53.222;7.446;2023-12-29T08:51:28;24.50;;;4.00;;
36185;SDS011;22228;53.222;7.446;2023-12-29T08:54:49;20.43;;;3.97;;
36185;SDS011;22228;53.222;7.446;2023-12-29T08:58:09;18.33;;;3.43;;
36185;SDS011;22228;53.222;7.446;2023-12-29T09:01:30;17.87;;;3.83;;
36185;SDS011;22228;53.222;7.446;2023-12-29T09:04:51;20.30;;;3.97;;
36185;SDS011;22228;53.222;7.446;2023-12-29T09:08:12;28.33;;;5.00;;
36185;SDS011;22228;53.222;7.446;2023-12-29T09:11:32;19.63;;;3.67;;
36185;SDS011;22228;53.222;7.446;2023-12-29T09:14:53;27.07;;;4.63;;
36185;SDS011;22228;53.222;7.446;2023-12-29T09:18:13;16.43;;;4.10;;
36185;SDS011;22228;53.222;7.446;2023-12-29T09:21:35;12.10;;;2.63;;
36185;SDS011;22228;53.222;7.446;2023-12-29T09:24:55;17.70;;;3.70;;
36185;SDS011;22228;53.222;7.446;2023-12-29T09:28:16;14.17;;;3.57;;
36185;SDS011;22228;53.222;7.446;2023-12-29T09:31:36;18.97;;;3.33;;
36185;SDS011;22228;53.222;7.446;2023-12-29T09:34:57;15.93;;;3.60;;
36185;SDS011;22228;53.222;7.446;2023-12-29T09:38:19;12.30;;;2.57;;
36185;SDS011;22228;53.222;7.446;2023-12-29T09:41:40;9.60;;;2.40;;
36185;SDS011;22228;53.222;7.446;2023-12-29T09:45:06;10.27;;;2.13;;
36185;SDS011;22228;53.222;7.446;2023-12-29T09:48:30;14.20;;;2.73;;
36185;SDS011;22228;53.222;7.446;2023-12-29T09:51:53;12.97;;;2.63;;
36185;SDS011;22228;53.222;7.446;2023-12-29T09:55:18;20.47;;;3.40;;
36185;SDS011;22228;53.222;7.446;2023-12-29T09:58:39;13.77;;;3.50;;
36185;SDS011;22228;53.222;7.446;2023-12-29T10:02:01;9.97;;;2.73;;
36185;SDS011;22228;53.222;7.446;2023-12-29T10:05:23;11.93;;;2.73;;
36185;SDS011;22228;53.222;7.446;2023-12-29T10:08:44;15.43;;;3.13;;
36185;SDS011;22228;53.222;7.446;2023-12-29T10:12:09;14.47;;;2.57;;
36185;SDS011;22228;53.222;7.446;2023-12-29T10:15:31;15.07;;;2.10;;
36185;SDS011;22228;53.222;7.446;2023-12-29T10:19:00;11.87;;;3.00;;
36185;SDS011;22228;53.222;7.446;2023-12-29T10:22:30;8.97;;;2.27;;
36185;SDS011;22228;53.222;7.446;2023-12-29T10:25:56;13.43;;;2.63;;
36185;SDS011;22228;53.222;7.446;2023-12-29T10:29:18;16.77;;;3.07;;
36185;SDS011;22228;53.222;7.446;2023-12-29T10:32:39;14.93;;;4.10;;
36185;SDS011;22228;53.222;7.446;2023-12-29T10:36:00;13.40;;;2.70;;
36185;SDS011;22228;53.222;7.446;2023-12-29T10:39:22;13.10;;;2.57;;
36185;SDS011;22228;53.222;7.446;2023-12-29T10:42:51;11.07;;;2.30;;
36185;SDS011;22228;53.222;7.446;2023-12-29T10:46:13;17.30;;;2.77;;
36185;SDS011;22228;53.222;7.446;2023-12-29T10:49:34;18.97;;;2.97;;
36185;SDS011;22228;53.222;7.446;2023-12-29T10:56:33;13.20;;;2.87;;
36185;SDS011;22228;53.222;7.446;2023-12-29T10:59:54;12.00;;;2.13;;
36185;SDS011;22228;53.222;7.446;2023-12-29T11:03:16;14.47;;;3.50;;
36185;SDS011;22228;53.222;7.446;2023-12-29T11:06:40;11.87;;;2.77;;
36185;SDS011;22228;53.222;7.446;2023-12-29T11:10:03;10.30;;;1.90;;
36185;SDS011;22228;53.222;7.446;2023-12-29T11:13:25;14.47;;;3.20;;
36185;SDS011;22228;53.222;7.446;2023-12-29T11:16:47;12.10;;;2.50;;
36185;SDS011;22228;53.222;7.446;2023-12-29T11:20:10;9.57;;;1.80;;
36185;SDS011;22228;53.222;7.446;2023-12-29T11:23:33;10.07;;;2.83;;
36185;SDS011;22228;53.222;7.446;2023-12-29T11:26:53;9.60;;;2.50;;
36185;SDS011;22228;53.222;7.446;2023-12-29T11:30:14;12.90;;;2.67;;
36185;SDS011;22228;53.222;7.446;2023-12-29T11:33:37;13.50;;;2.10;;
36185;SDS011;22228;53.222;7.446;2023-12-29T11:37:04;12.97;;;2.20;;
36185;SDS011;22228;53.222;7.446;2023-12-29T11:40:36;9.93;;;2.50;;
36185;SDS011;22228;53.222;7.446;2023-12-29T11:44:01;15.27;;;3.27;;
36185;SDS011;22228;53.222;7.446;2023-12-29T11:47:34;12.03;;;2.40;;
36185;SDS011;22228;53.222;7.446;2023-12-29T11:50:55;16.87;;;2.90;;
36185;SDS011;22228;53.222;7.446;2023-12-29T11:54:22;11.93;;;2.50;;
36185;SDS011;22228;53.222;7.446;2023-12-29T11:57:43;11.93;;;2.00;;
36185;SDS011;22228;53.222;7.446;2023-12-29T12:01:04;7.60;;;1.73;;
36185;SDS011;22228;53.222;7.446;2023-12-29T12:04:34;12.23;;;3.13;;
36185;SDS011;22228;53.222;7.446;2023-12-29T12:07:56;14.37;;;2.13;;
36185;SDS011;22228;53.222;7.446;2023-12-29T12:15:04;7.90;;;1.97;;
36185;SDS011;22228;53.222;7.446;2023-12-29T12:18:51;12.63;;;2.70;;
36185;SDS011;22228;53.222;7.446;2023-12-29T12:22:12;12.23;;;2.33;;
36185;SDS011;22228;53.222;7.446;2023-12-29T12:25:32;12.23;;;3.03;;
36185;SDS011;22228;53.222;7.446;2023-12-29T12:28:54;9.10;;;1.93;;
36185;SDS011;22228;53.222;7.446;2023-12-29T12:32:15;6.03;;;1.70;;
36185;SDS011;22228;53.222;7.446;2023-12-29T12:35:36;7.67;;;1.57;;
36185;SDS011;22228;53.222;7.446;2023-12-29T12:38:57;9.97;;;1.70;;
36185;SDS011;22228;53.222;7.446;2023-12-29T12:42:18;11.53;;;2.03;;
36185;SDS011;22228;53.222;7.446;2023-12-29T12:45:42;7.03;;;1.40;;
36185;SDS011;22228;53.222;7.446;2023-12-29T12:49:06;10.30;;;1.77;;
36185;SDS011;22228;53.222;7.446;2023-12-29T12:52:30;10.13;;;1.70;;
36185;SDS011;22228;53.222;7.446;2023-12-29T12:55:50;8.40;;;1.50;;
36185;SDS011;22228;53.222;7.446;2023-12-29T12:59:12;11.83;;;1.80;;
36185;SDS011;22228;53.222;7.446;2023-12-29T13:02:35;6.83;;;1.87;;
36185;SDS011;22228;53.222;7.446;2023-12-29T13:05:56;6.10;;;1.93;;
36185;SDS011;22228;53.222;7.446;2023-12-29T13:09:17;10.53;;;2.27;;
36185;SDS011;22228;53.222;7.446;2023-12-29T13:12:38;10.80;;;2.27;;
36185;SDS011;22228;53.222;7.446;2023-12-29T13:15:59;10.00;;;1.97;;
36185;SDS011;22228;53.222;7.446;2023-12-29T13:19:22;12.73;;;1.97;;
36185;SDS011;22228;53.222;7.446;2023-12-29T13:22:44;7.40;;;1.70;;
36185;SDS011;22228;53.222;7.446;2023-12-29T13:26:06;15.00;;;2.60;;
36185;SDS011;22228;53.222;7.446;2023-12-29T13:29:28;8.73;;;2.10;;
36185;SDS011;22228;53.222;7.446;2023-12-29T13:32:50;9.73;;;2.20;;
36185;SDS011;22228;53.222;7.446;2023-12-29T13:36:13;13.40;;;3.00;;
36185;SDS011;22228;53.222;7.446;2023-12-29T13:39:44;16.87;;;4.57;;
36185;SDS011;22228;53.222;7.446;2023-12-29T13:43:11;17.90;;;5.90;;
36185;SDS011;22228;53.222;7.446;2023-12-29T13:46:35;14.63;;;3.33;;
36185;SDS011;22228;53.222;7.446;2023-12-29T13:49:56;9.30;;;2.27;;
36185;SDS011;22228;53.222;7.446;2023-12-29T13:53:18;12.07;;;2.10;;
36185;SDS011;22228;53.222;7.446;2023-12-29T13:56:50;11.07;;;2.43;;
36185;SDS011;22228;53.222;7.446;2023-12-29T14:00:13;10.57;;;2.40;;
36185;SDS011;22228;53.222;7.446;2023-12-29T14:03:37;14.43;;;2.83;;
36185;SDS011;22228;53.222;7.446;2023-12-29T14:07:06;13.97;;;2.90;;
36185;SDS011;22228;53.222;7.446;2023-12-29T14:10:30;10.00;;;2.10;;
36185;SDS011;22228;53.222;7.446;2023-12-29T14:13:50;13.10;;;1.90;;
36185;SDS011;22228;53.222;7.446;2023-12-29T14:17:19;10.60;;;2.23;;
36185;SDS011;22228;53.222;7.446;2023-12-29T14:20:40;10.70;;;2.27;;
36185;SDS011;22228;53.222;7.446;2023-12-29T14:24:02;10.53;;;2.30;;
36185;SDS011;22228;53.222;7.446;2023-12-29T14:27:30;14.27;;;2.43;;
36185;SDS011;22228;53.222;7.446;2023-12-29T14:30:50;12.67;;;1.90;;
36185;SDS011;22228;53.222;7.446;2023-12-29T14:34:20;13.60;;;2.60;;
36185;SDS011;22228;53.222;7.446;2023-12-29T14:37:41;10.97;;;2.60;;
36185;SDS011;22228;53.222;7.446;2023-12-29T14:41:02;8.27;;;2.20;;
36185;SDS011;22228;53.222;7.446;2023-12-29T14:44:24;27.33;;;11.17;;
36185;SDS011;22228;53.222;7.446;2023-12-29T14:47:44;21.27;;;7.17;;
36185;SDS011;22228;53.222;7.446;2023-12-29T14:51:05;11.97;;;4.80;;
36185;SDS011;22228;53.222;7.446;2023-12-29T14:54:26;17.07;;;6.33;;
36185;SDS011;22228;53.222;7.446;2023-12-29T14:57:46;13.83;;;4.57;;
36185;SDS011;22228;53.222;7.446;2023-12-29T15:01:08;9.50;;;2.00;;
36185;SDS011;22228;53.222;7.446;2023-12-29T15:04:28;8.03;;;2.00;;
36185;SDS011;22228;53.222;7.446;2023-12-29T15:07:50;9.90;;;2.37;;
36185;SDS011;22228;53.222;7.446;2023-12-29T15:11:10;8.50;;;2.33;;
36185;SDS011;22228;53.222;7.446;2023-12-29T15:14:31;16.83;;;2.33;;
36185;SDS011;22228;53.222;7.446;2023-12-29T15:17:53;11.77;;;2.37;;
36185;SDS011;22228;53.222;7.446;2023-12-29T15:21:13;9.40;;;1.97;;
36185;SDS011;22228;53.222;7.446;2023-12-29T15:24:34;6.53;;;1.40;;
36185;SDS011;22228;53.222;7.446;2023-12-29T15:27:54;8.33;;;1.47;;
36185;SDS011;22228;53.222;7.446;2023-12-29T15:31:15;14.97;;;2.87;;
36185;SDS011;22228;53.222;7.446;2023-12-29T15:34:38;12.17;;;4.63;;
36185;SDS011;22228;53.222;7.446;2023-12-29T15:37:58;19.67;;;2.17;;
36185;SDS011;22228;53.222;7.446;2023-12-29T15:41:19;15.33;;;2.67;;
36185;SDS011;22228;53.222;7.446;2023-12-29T15:44:39;9.30;;;2.10;;
36185;SDS011;22228;53.222;7.446;2023-12-29T15:48:00;11.07;;;3.10;;
36185;SDS011;22228;53.222;7.446;2023-12-29T15:51:22;9.27;;;2.10;;
36185;SDS011;22228;53.222;7.446;2023-12-29T15:54:42;9.23;;;2.03;;
36185;SDS011;22228;53.222;7.446;2023-12-29T15:58:03;10.83;;;1.93;;
36185;SDS011;22228;53.222;7.446;2023-12-29T16:01:24;9.60;;;2.80;;
36185;SDS011;22228;53.222;7.446;2023-12-29T16:04:46;11.23;;;2.07;;
36185;SDS011;22228;53.222;7.446;2023-12-29T16:08:08;10.70;;;2.20;;
36185;SDS011;22228;53.222;7.446;2023-12-29T16:11:29;8.13;;;2.33;;
36185;SDS011;22228;53.222;7.446;2023-12-29T16:14:49;13.90;;;2.50;;
36185;SDS011;22228;53.222;7.446;2023-12-29T16:18:13;6.33;;;1.87;;
36185;SDS011;22228;53.222;7.446;2023-12-29T16:21:35;13.87;;;2.20;;
36185;SDS011;22228;53.222;7.446;2023-12-29T16:24:57;38.70;;;19.73;;
36185;SDS011;22228;53.222;7.446;2023-12-29T16:28:18;38.20;;;20.33;;
36185;SDS011;22228;53.222;7.446;2023-12-29T16:31:38;17.87;;;6.97;;
36185;SDS011;22228;53.222;7.446;2023-12-29T16:34:59;17.23;;;6.93;;
36185;SDS011;22228;53.222;7.446;2023-12-29T16:38:19;9.27;;;2.50;;
36185;SDS011;22228;53.222;7.446;2023-12-29T16:41:41;10.07;;;2.50;;
36185;SDS011;22228;53.222;7.446;2023-12-29T16:45:03;7.37;;;2.13;;
36185;SDS011;22228;53.222;7.446;2023-12-29T16:48:25;11.30;;;2.83;;
36185;SDS011;22228;53.222;7.446;2023-12-29T16:51:45;11.47;;;2.53;;
36185;SDS011;22228;53.222;7.446;2023-12-29T16:55:06;6.87;;;1.80;;
36185;SDS011;22228;53.222;7.446;2023-12-29T16:58:28;11.50;;;2.50;;
36185;SDS011;22228;53.222;7.446;2023-12-29T17:01:48;9.67;;;2.37;;
36185;SDS011;22228;53.222;7.446;2023-12-29T17:05:09;11.70;;;3.00;;
36185;SDS011;22228;53.222;7.446;2023-12-29T17:08:30;10.87;;;2.00;;
36185;SDS011;22228;53.222;7.446;2023-12-29T17:11:52;15.37;;;3.23;;
36185;SDS011;22228;53.222;7.446;2023-12-29T17:15:14;11.13;;;2.53;;
36185;SDS011;22228;53.222;7.446;2023-12-29T17:18:35;11.30;;;2.10;;
36185;SDS011;22228;53.222;7.446;2023-12-29T17:21:55;11.87;;;3.50;;
36185;SDS011;22228;53.222;7.446;2023-12-29T17:25:16;12.13;;;2.10;;
36185;SDS011;22228;53.222;7.446;2023-12-29T17:28:37;10.27;;;1.30;;
36185;SDS011;22228;53.222;7.446;2023-12-29T17:31:59;11.50;;;2.00;;
36185;SDS011;22228;53.222;7.446;2023-12-29T17:35:21;10.67;;;1.80;;
36185;SDS011;22228;53.222;7.446;2023-12-29T17:38:42;6.77;;;1.97;;
36185;SDS011;22228;53.222;7.446;2023-12-29T17:42:03;9.50;;;2.70;;
36185;SDS011;22228;53.222;7.446;2023-12-29T17:45:24;13.10;;;2.47;;
36185;SDS011;22228;53.222;7.446;2023-12-29T17:48:46;6.07;;;1.30;;
36185;SDS011;22228;53.222;7.446;2023-12-29T17:52:07;10.10;;;2.43;;
36185;SDS011;22228;53.222;7.446;2023-12-29T17:55:27;10.70;;;2.20;;
36185;SDS011;22228;53.222;7.446;2023-12-29T17:58:48;12.57;;;1.87;;
36185;SDS011;22228;53.222;7.446;2023-12-29T18:02:08;6.73;;;1.80;;
36185;SDS011;22228;53.222;7.446;2023-12-29T18:05:30;5.73;;;1.50;;
36185;SDS011;22228;53.222;7.446;2023-12-29T18:08:50;4.73;;;0.90;;
36185;SDS011;22228;53.222;7.446;2023-12-29T18:12:13;5.03;;;0.93;;
36185;SDS011;22228;53.222;7.446;2023-12-29T18:15:34;7.53;;;3.43;;
36185;SDS011;22228;53.222;7.446;2023-12-29T18:18:54;4.67;;;0.90;;
36185;SDS011;22228;53.222;7.446;2023-12-29T18:22:16;3.90;;;0.97;;
36185;SDS011;22228;53.222;7.446;2023-12-29T18:25:36;3.30;;;1.00;;
36185;SDS011;22228;53.222;7.446;2023-12-29T18:28:57;5.87;;;1.20;;
36185;SDS011;22228;53.222;7.446;2023-12-29T18:32:17;7.90;;;1.40;;
36185;SDS011;22228;53.222;7.446;2023-12-29T18:35:38;4.67;;;1.07;;
36185;SDS011;22228;53.222;7.446;2023-12-29T18:38:59;2.80;;;1.13;;
36185;SDS011;22228;53.222;7.446;2023-12-29T18:42:20;6.20;;;1.23;;
36185;SDS011;22228;53.222;7.446;2023-12-29T18:45:41;5.40;;;1.20;;
36185;SDS011;22228;53.222;7.446;2023-12-29T18:49:01;3.57;;;1.10;;
36185;SDS011;22228;53.222;7.446;2023-12-29T18:52:23;6.60;;;1.40;;
36185;SDS011;22228;53.222;7.446;2023-12-29T18:55:45;5.27;;;1.27;;
36185;SDS011;22228;53.222;7.446;2023-12-29T18:59:06;4.70;;;0.90;;
36185;SDS011;22228;53.222;7.446;2023-12-29T19:02:31;3.53;;;1.00;;
36185;SDS011;22228;53.222;7.446;2023-12-29T19:05:52;2.13;;;0.60;;
36185;SDS011;22228;53.222;7.446;2023-12-29T19:09:12;3.87;;;0.87;;
36185;SDS011;22228;53.222;7.446;2023-12-29T19:12:34;4.23;;;0.83;;
36185;SDS011;22228;53.222;7.446;2023-12-29T19:15:55;3.60;;;2.37;;
36185;SDS011;22228;53.222;7.446;2023-12-29T19:19:17;14.27;;;10.33;;
36185;SDS011;22228;53.222;7.446;2023-12-29T19:22:38;4.40;;;1.07;;
36185;SDS011;22228;53.222;7.446;2023-12-29T19:26:00;3.03;;;1.40;;
36185;SDS011;22228;53.222;7.446;2023-12-29T19:29:23;4.10;;;1.70;;
36185;SDS011;22228;53.222;7.446;2023-12-29T19:32:43;2.10;;;1.17;;
36185;SDS011;22228;53.222;7.446;2023-12-29T19:36:04;3.60;;;0.90;;
36185;SDS011;22228;53.222;7.446;2023-12-29T19:39:28;5.20;;;1.00;;
36185;SDS011;22228;53.222;7.446;2023-12-29T19:42:49;2.80;;;1.20;;
36185;SDS011;22228;53.222;7.446;2023-12-29T19:46:10;3.03;;;0.90;;
36185;SDS011;22228;53.222;7.446;2023-12-29T19:49:31;2.87;;;0.70;;
36185;SDS011;22228;53.222;7.446;2023-12-29T19:52:51;2.77;;;1.07;;
36185;SDS011;22228;53.222;7.446;2023-12-29T19:56:12;2.43;;;1.00;;
36185;SDS011;22228;53.222;7.446;2023-12-29T19:59:41;1.90;;;0.60;;
36185;SDS011;22228;53.222;7.446;2023-12-29T20:03:06;2.90;;;0.90;;
36185;SDS011;22228;53.222;7.446;2023-12-29T20:06:26;3.00;;;0.80;;
36185;SDS011;22228;53.222;7.446;2023-12-29T20:09:47;2.50;;;0.87;;
36185;SDS011;22228;53.222;7.446;2023-12-29T20:13:08;4.10;;;0.80;;
36185;SDS011;22228;53.222;7.446;2023-12-29T20:16:29;1.03;;;0.60;;
36185;SDS011;22228;53.222;7.446;2023-12-29T20:19:51;2.77;;;0.70;;
36185;SDS011;22228;53.222;7.446;2023-12-29T20:23:11;3.70;;;0.73;;
36185;SDS011;22228;53.222;7.446;2023-12-29T20:26:32;4.10;;;0.80;;
36185;SDS011;22228;53.222;7.446;2023-12-29T20:29:53;3.10;;;0.70;;
36185;SDS011;22228;53.222;7.446;2023-12-29T20:33:13;2.13;;;0.80;;
36185;SDS011;22228;53.222;7.446;2023-12-29T20:36:35;5.13;;;0.97;;
36185;SDS011;22228;53.222;7.446;2023-12-29T20:39:55;4.03;;;0.90;;
36185;SDS011;22228;53.222;7.446;2023-12-29T20:43:17;6.63;;;0.93;;
36185;SDS011;22228;53.222;7.446;2023-12-29T20:46:37;3.47;;;1.30;;
36185;SDS011;22228;53.222;7.446;2023-12-29T20:49:59;4.90;;;1.27;;
36185;SDS011;22228;53.222;7.446;2023-12-29T20:53:21;4.90;;;1.07;;
36185;SDS011;22228;53.222;7.446;2023-12-29T20:56:42;4.53;;;1.60;;
36185;SDS011;22228;53.222;7.446;2023-12-29T21:00:03;3.70;;;0.93;;
36185;SDS011;22228;53.222;7.446;2023-12-29T21:03:24;4.03;;;1.03;;
36185;SDS011;22228;53.222;7.446;2023-12-29T21:06:44;5.13;;;1.40;;
36185;SDS011;22228;53.222;7.446;2023-12-29T21:10:07;5.53;;;1.03;;
36185;SDS011;22228;53.222;7.446;2023-12-29T21:13:28;2.33;;;1.10;;
36185;SDS011;22228;53.222;7.446;2023-12-29T21:16:48;4.37;;;1.17;;
36185;SDS011;22228;53.222;7.446;2023-12-29T21:20:09;3.70;;;1.10;;
36185;SDS011;22228;53.222;7.446;2023-12-29T21:23:31;6.50;;;1.33;;
36185;SDS011;22228;53.222;7.446;2023-12-29T21:26:53;3.93;;;1.50;;
36185;SDS011;22228;53.222;7.446;2023-12-29T21:30:13;4.73;;;1.00;;
36185;SDS011;22228;53.222;7.446;2023-12-29T21:33:35;4.53;;;1.03;;
36185;SDS011;22228;53.222;7.446;2023-12-29T21:36:55;4.90;;;1.00;;
36185;SDS011;22228;53.222;7.446;2023-12-29T21:40:16;5.77;;;1.17;;
36185;SDS011;22228;53.222;7.446;2023-12-29T21:43:38;4.87;;;1.07;;
36185;SDS011;22228;53.222;7.446;2023-12-29T21:46:59;3.97;;;1.10;;
36185;SDS011;22228;53.222;7.446;2023-12-29T21:50:19;4.07;;;1.10;;
36185;SDS011;22228;53.222;7.446;2023-12-29T21:53:40;4.03;;;1.00;;
36185;SDS011;22228;53.222;7.446;2023-12-29T21:57:00;5.93;;;1.20;;
36185;SDS011;22228;53.222;7.446;2023-12-29T22:00:23;5.83;;;1.37;;
36185;SDS011;22228;53.222;7.446;2023-12-29T22:03:44;2.77;;;1.20;;
36185;SDS011;22228;53.222;7.446;2023-12-29T22:07:04;5.23;;;1.30;;
36185;SDS011;22228;53.222;7.446;2023-12-29T22:10:24;2.53;;;1.20;;
36185;SDS011;22228;53.222;7.446;2023-12-29T22:13:46;3.80;;;1.20;;
36185;SDS011;22228;53.222;7.446;2023-12-29T22:17:08;4.47;;;1.43;;
36185;SDS011;22228;53.222;7.446;2023-12-29T22:20:28;2.70;;;1.27;;
36185;SDS011;22228;53.222;7.446;2023-12-29T22:23:49;8.03;;;1.67;;
36185;SDS011;22228;53.222;7.446;2023-12-29T22:27:09;4.03;;;1.57;;
36185;SDS011;22228;53.222;7.446;2023-12-29T22:30:30;4.53;;;1.63;;
36185;SDS011;22228;53.222;7.446;2023-12-29T22:33:51;5.50;;;1.50;;
36185;SDS011;22228;53.222;7.446;2023-12-29T22:37:12;5.43;;;1.70;;
36185;SDS011;22228;53.222;7.446;2023-12-29T22:40:33;4.13;;;1.60;;
36185;SDS011;22228;53.222;7.446;2023-12-29T22:43:53;4.37;;;1.53;;
36185;SDS011;22228;53.222;7.446;2023-12-29T22:47:14;5.63;;;1.57;;
36185;SDS011;22228;53.222;7.446;2023-12-29T22:50:36;4.27;;;1.70;;
36185;SDS011;22228;53.222;7.446;2023-12-29T22:53:56;4.97;;;1.47;;
36185;SDS011;22228;53.222;7.446;2023-12-29T22:57:16;4.73;;;1.30;;
36185;SDS011;22228;53.222;7.446;2023-12-29T23:00:37;4.40;;;1.03;;